createdAt,value
2019-02-06T00:01:46.979Z,-3.00
2019-02-06T00:04:19.185Z,-3.10
2019-02-06T00:06:51.362Z,-3.10
2019-02-06T00:09:23.831Z,-3.00
2019-02-06T00:11:56.274Z,-3.10
2019-02-06T00:14:29.457Z,-3.17
2019-02-06T00:17:01.913Z,-3.06
2019-02-06T00:19:34.325Z,-3.11
2019-02-06T00:22:09.211Z,-3.09
2019-02-06T00:24:44.003Z,-3.03
2019-02-06T00:27:16.163Z,-2.96
2019-02-06T00:29:48.533Z,-2.98
2019-02-06T00:32:21.045Z,-2.94
2019-02-06T00:34:53.719Z,-3.04
2019-02-06T00:37:26.330Z,-3.08
2019-02-06T00:39:58.697Z,-3.14
2019-02-06T00:42:31.566Z,-3.09
2019-02-06T00:45:04.071Z,-3.28
2019-02-06T00:47:36.720Z,-3.20
2019-02-06T00:50:11.249Z,-3.24
2019-02-06T00:52:44.040Z,-3.18
2019-02-06T00:55:16.642Z,-3.17
2019-02-06T00:57:48.989Z,-3.07
2019-02-06T01:00:23.518Z,-3.11
2019-02-06T01:02:55.713Z,-3.10
2019-02-06T01:05:38.051Z,-3.10
2019-02-06T01:08:02.145Z,-3.15
2019-02-06T01:10:34.628Z,-3.16
2019-02-06T01:13:07.202Z,-3.29
2019-02-06T01:15:39.734Z,-3.25
2019-02-06T01:18:12.367Z,-3.27
2019-02-06T01:20:44.747Z,-3.21
2019-02-06T01:23:17.110Z,-3.24
2019-02-06T01:25:49.575Z,-3.36
2019-02-06T01:28:22.491Z,-3.36
2019-02-06T01:31:05.145Z,-3.38
2019-02-06T01:33:37.862Z,-3.34
2019-02-06T01:36:10.499Z,-3.34
2019-02-06T01:38:43.064Z,-3.43
2019-02-06T01:41:15.433Z,-3.47
2019-02-06T01:43:47.593Z,-3.56
2019-02-06T01:46:19.852Z,-3.56
2019-02-06T01:48:52.592Z,-3.42
2019-02-06T01:51:26.084Z,-3.45
2019-02-06T01:53:58.263Z,-3.34
2019-02-06T01:56:30.720Z,-3.51
2019-02-06T01:59:03.103Z,-3.62
2019-02-06T02:01:35.793Z,-3.80
2019-02-06T02:04:08.675Z,-3.73
2019-02-06T02:06:41.333Z,-3.69
2019-02-06T02:09:19.763Z,-3.75
2019-02-06T02:11:51.930Z,-3.75
2019-02-06T02:14:24.097Z,-3.75
2019-02-06T02:16:56.461Z,-3.65
2019-02-06T02:19:28.825Z,-3.65
2019-02-06T02:22:01.623Z,-3.62
2019-02-06T02:24:34.080Z,-3.56
2019-02-06T02:27:06.733Z,-3.69
2019-02-06T02:29:39.472Z,-3.67
2019-02-06T02:32:12.005Z,-3.64
2019-02-06T02:34:44.691Z,-3.60
2019-02-06T02:37:17.393Z,-3.68
2019-02-06T02:39:50.120Z,-3.64
2019-02-06T02:42:22.508Z,-3.64
2019-02-06T02:44:54.620Z,-3.59
2019-02-06T02:47:27.405Z,-3.59
2019-02-06T02:49:59.721Z,-3.55
2019-02-06T02:52:32.115Z,-3.42
2019-02-06T02:55:05.149Z,-3.58
2019-02-06T02:57:37.427Z,-3.57
2019-02-06T03:00:17.560Z,-3.69
2019-02-06T03:02:58.260Z,-3.62
2019-02-06T03:05:32.514Z,-3.60
2019-02-06T03:08:05.022Z,-3.64
2019-02-06T03:10:37.522Z,-3.63
2019-02-06T03:13:10.292Z,-3.63
2019-02-06T03:15:42.743Z,-3.62
2019-02-06T03:18:15.526Z,-3.67
2019-02-06T03:20:48.112Z,-3.66
2019-02-06T03:23:20.852Z,-3.64
2019-02-06T03:25:53.180Z,-3.62
2019-02-06T03:28:25.256Z,-3.57
2019-02-06T03:30:58.274Z,-3.65
2019-02-06T03:33:30.639Z,-3.71
2019-02-06T03:36:02.973Z,-3.69
2019-02-06T03:38:35.216Z,-3.68
2019-02-06T03:41:07.775Z,-3.65
2019-02-06T03:43:40.190Z,-3.70
2019-02-06T03:46:12.829Z,-3.77
2019-02-06T03:48:45.385Z,-3.76
2019-02-06T03:51:18.110Z,-3.89
2019-02-06T03:53:50.473Z,-3.88
2019-02-06T03:56:22.804Z,-3.84
2019-02-06T03:58:54.871Z,-3.77
2019-02-06T04:01:27.884Z,-3.79
2019-02-06T04:04:00.351Z,-3.77
2019-02-06T04:06:32.890Z,-3.86
2019-02-06T04:09:08.480Z,-3.93
2019-02-06T04:11:40.573Z,-3.85
2019-02-06T04:14:12.723Z,-3.85
2019-02-06T04:16:45.492Z,-3.90
2019-02-06T04:19:17.864Z,-3.98
2019-02-06T04:21:50.236Z,-4.01
2019-02-06T04:24:22.683Z,-3.93
2019-02-06T04:26:55.027Z,-3.92
2019-02-06T04:29:27.136Z,-3.85
2019-02-06T04:31:59.249Z,-3.94
2019-02-06T04:34:31.376Z,-4.03
2019-02-06T04:37:06.613Z,-4.06
2019-02-06T04:39:37.946Z,-3.99
2019-02-06T04:42:10.381Z,-4.07
2019-02-06T04:44:42.909Z,-3.97
2019-02-06T04:47:15.242Z,-4.07
2019-02-06T04:49:48.373Z,-4.06
2019-02-06T04:52:20.901Z,-4.00
2019-02-06T04:54:53.456Z,-4.00
2019-02-06T04:57:25.812Z,-4.06
2019-02-06T04:59:58.465Z,-4.06
2019-02-06T05:02:31.240Z,-4.15
2019-02-06T05:05:03.599Z,-4.10
2019-02-06T05:07:35.997Z,-4.09
2019-02-06T05:10:10.945Z,-4.35
2019-02-06T05:12:43.538Z,-4.28
2019-02-06T05:15:17.234Z,-4.31
2019-02-06T05:17:49.405Z,-4.23
2019-02-06T05:20:36.375Z,-4.23
2019-02-06T05:23:09.986Z,-4.34
2019-02-06T05:25:42.168Z,-4.24
2019-02-06T05:28:17.884Z,-4.31
2019-02-06T05:30:48.511Z,-4.34
2019-02-06T05:33:20.582Z,-4.32
2019-02-06T05:35:53.695Z,-4.24
2019-02-06T05:38:26.092Z,-4.34
2019-02-06T05:40:58.543Z,-4.40
2019-02-06T05:43:31.190Z,-4.45
2019-02-06T05:46:03.892Z,-4.42
2019-02-06T05:48:36.660Z,-4.49
2019-02-06T05:51:09.050Z,-4.36
2019-02-06T05:53:41.701Z,-4.42
2019-02-06T05:56:14.070Z,-4.46
2019-02-06T05:58:46.610Z,-4.38
2019-02-06T06:01:21.204Z,-4.46
2019-02-06T06:03:53.366Z,-4.46
2019-02-06T06:06:25.551Z,-4.52
2019-02-06T06:08:57.887Z,-4.47
2019-02-06T06:11:30.277Z,-4.56
2019-02-06T06:14:02.984Z,-4.55
2019-02-06T06:16:35.451Z,-4.47
2019-02-06T06:19:07.878Z,-4.53
2019-02-06T06:21:40.578Z,-4.62
2019-02-06T06:24:12.926Z,-4.58
2019-02-06T06:26:45.024Z,-4.57
2019-02-06T06:29:17.071Z,-4.62
2019-02-06T06:31:49.184Z,-4.58
2019-02-06T06:34:21.694Z,-4.54
2019-02-06T06:36:56.719Z,-4.65
2019-02-06T06:39:27.962Z,-4.49
2019-02-06T06:42:00.054Z,-4.53
2019-02-06T06:44:32.103Z,-4.70
2019-02-06T06:47:04.473Z,-4.63
2019-02-06T06:49:36.964Z,-4.54
2019-02-06T06:52:09.618Z,-4.68
2019-02-06T06:54:42.089Z,-4.63
2019-02-06T06:57:14.546Z,-4.60
2019-02-06T06:59:46.935Z,-4.49
2019-02-06T07:02:19.817Z,-4.39
2019-02-06T07:04:52.227Z,-4.41
2019-02-06T07:07:24.584Z,-4.49
2019-02-06T07:09:57.043Z,-4.37
2019-02-06T07:12:29.414Z,-4.23
2019-02-06T07:15:02.040Z,-4.30
2019-02-06T07:17:34.474Z,-4.40
2019-02-06T07:20:09.537Z,-4.23
2019-02-06T07:22:42.072Z,-4.29
2019-02-06T07:25:16.312Z,-4.35
2019-02-06T07:27:48.594Z,-4.10
2019-02-06T07:30:27.545Z,-4.20
2019-02-06T07:33:00.051Z,-4.25
2019-02-06T07:35:32.593Z,-4.29
2019-02-06T07:38:05.341Z,-4.09
2019-02-06T07:40:37.702Z,-4.12
2019-02-06T07:43:10.084Z,-4.13
2019-02-06T07:45:42.431Z,-4.22
2019-02-06T07:48:14.816Z,-4.08
2019-02-06T07:50:47.339Z,-3.95
2019-02-06T07:53:20.089Z,-3.94
2019-02-06T07:55:52.846Z,-3.97
2019-02-06T07:58:25.291Z,-4.00
2019-02-06T08:00:57.671Z,-3.81
2019-02-06T08:03:30.131Z,-3.94
2019-02-06T08:06:02.866Z,-3.79
2019-02-06T08:08:36.498Z,-3.84
2019-02-06T08:11:08.624Z,-3.71
2019-02-06T08:13:41.493Z,-3.70
2019-02-06T08:16:14.715Z,-3.79
2019-02-06T08:18:45.863Z,-3.65
2019-02-06T08:21:18.136Z,-3.67
2019-02-06T08:23:50.642Z,-3.70
2019-02-06T08:26:24.160Z,-3.60
2019-02-06T08:28:57.062Z,-3.76
2019-02-06T08:31:29.245Z,-3.66
2019-02-06T08:34:01.654Z,-3.70
2019-02-06T08:36:34.379Z,-3.72
2019-02-06T08:39:10.433Z,-3.58
2019-02-06T08:41:42.618Z,-3.63
2019-02-06T08:44:15.225Z,-3.44
2019-02-06T08:46:47.947Z,-3.35
2019-02-06T08:49:20.893Z,-3.27
2019-02-06T08:51:53.391Z,-3.27
2019-02-06T08:54:25.943Z,-3.22
2019-02-06T08:57:00.880Z,-3.14
2019-02-06T08:59:36.065Z,-3.31
2019-02-06T09:02:07.443Z,-3.08
2019-02-06T09:04:39.935Z,-3.07
2019-02-06T09:07:12.318Z,-3.24
2019-02-06T09:09:45.076Z,-3.09
2019-02-06T09:12:17.722Z,-2.98
2019-02-06T09:14:50.145Z,-2.92
2019-02-06T09:17:22.520Z,-3.00
2019-02-06T09:19:54.905Z,-2.97
2019-02-06T09:22:27.261Z,-2.92
2019-02-06T09:24:59.637Z,-2.74
2019-02-06T09:27:32.384Z,-2.83
2019-02-06T09:30:05.470Z,-2.85
2019-02-06T09:32:37.824Z,-2.95
2019-02-06T09:35:11.055Z,-2.97
2019-02-06T09:37:43.929Z,-3.09
2019-02-06T09:40:17.686Z,-2.58
2019-02-06T09:42:50.377Z,-2.65
2019-02-06T09:45:22.847Z,-2.67
2019-02-06T09:47:55.334Z,-2.52
2019-02-06T09:50:31.198Z,-2.56
2019-02-06T09:53:03.478Z,-2.65
2019-02-06T09:55:36.229Z,-2.53
2019-02-06T09:58:09.051Z,-2.51
2019-02-06T10:00:41.713Z,-2.32
2019-02-06T10:03:14.087Z,-2.69
2019-02-06T10:05:46.292Z,-2.54
2019-02-06T10:08:18.701Z,-2.39
2019-02-06T10:10:50.782Z,-2.22
2019-02-06T10:13:22.851Z,-2.30
2019-02-06T10:15:55.062Z,-2.36
2019-02-06T10:18:27.463Z,-2.25
2019-02-06T10:20:59.646Z,-1.87
2019-02-06T10:23:31.745Z,-1.93
2019-02-06T10:26:03.840Z,-1.82
2019-02-06T10:28:35.903Z,-1.75
2019-02-06T10:31:08.014Z,-1.78
2019-02-06T10:33:40.148Z,-1.72
2019-02-06T10:36:12.339Z,-1.66
2019-02-06T10:38:45.031Z,-1.51
2019-02-06T10:41:17.405Z,-1.62
2019-02-06T10:43:50.066Z,-1.50
2019-02-06T10:46:22.455Z,-1.57
2019-02-06T10:48:54.522Z,-1.37
2019-02-06T10:51:27.619Z,-1.97
2019-02-06T10:54:00.384Z,-1.78
2019-02-06T10:56:33.270Z,-1.62
2019-02-06T10:59:05.803Z,-1.40
2019-02-06T11:01:38.171Z,-1.51
2019-02-06T11:04:10.566Z,-1.41
2019-02-06T11:06:42.939Z,-1.30
2019-02-06T11:09:15.091Z,-1.11
2019-02-06T11:11:47.175Z,-0.73
2019-02-06T11:14:19.323Z,-0.61
2019-02-06T11:16:51.722Z,-0.82
2019-02-06T11:19:24.605Z,-0.23
2019-02-06T11:21:57.069Z,-0.44
2019-02-06T11:24:29.414Z,-0.96
2019-02-06T11:27:01.577Z,-0.21
2019-02-06T11:29:33.984Z,-0.12
2019-02-06T11:32:06.518Z,-0.27
2019-02-06T11:34:39.033Z,-0.63
2019-02-06T11:37:11.836Z,-0.43
2019-02-06T11:39:44.457Z,0.40
2019-02-06T11:42:16.817Z,0.78
2019-02-06T11:44:48.903Z,0.49
2019-02-06T11:47:21.606Z,0.81
2019-02-06T11:49:56.523Z,0.29
2019-02-06T11:52:29.455Z,0.23
2019-02-06T11:55:01.666Z,0.50
2019-02-06T11:57:34.052Z,1.20
2019-02-06T12:00:11.670Z,1.12
2019-02-06T12:02:44.749Z,0.76
2019-02-06T12:05:17.534Z,1.32
2019-02-06T12:07:49.892Z,1.88
2019-02-06T12:10:23.186Z,1.28
2019-02-06T12:12:56.196Z,1.47
2019-02-06T12:15:28.890Z,1.66
2019-02-06T12:18:01.318Z,1.64
2019-02-06T12:20:33.655Z,1.93
2019-02-06T12:23:06.883Z,1.24
2019-02-06T12:25:39.234Z,1.97
2019-02-06T12:28:12.487Z,2.30
2019-02-06T12:30:45.160Z,3.07
2019-02-06T12:33:17.934Z,2.30
2019-02-06T12:35:50.281Z,2.54
2019-02-06T12:38:22.347Z,2.65
2019-02-06T12:40:54.860Z,2.64
2019-02-06T12:43:26.961Z,2.90
2019-02-06T12:45:59.021Z,2.75
2019-02-06T12:48:31.478Z,2.49
2019-02-06T12:51:04.103Z,3.20
2019-02-06T12:53:36.932Z,3.76
2019-02-06T12:56:09.559Z,3.95
2019-02-06T12:58:41.920Z,4.38
2019-02-06T13:01:14.011Z,2.80
2019-02-06T13:03:46.129Z,3.44
2019-02-06T13:06:18.575Z,2.40
2019-02-06T13:08:51.106Z,2.65
2019-02-06T13:11:23.463Z,3.34
2019-02-06T13:13:55.557Z,4.08
2019-02-06T13:16:28.049Z,3.75
2019-02-06T13:19:00.727Z,3.62
2019-02-06T13:21:33.079Z,4.28
2019-02-06T13:24:05.750Z,3.64
2019-02-06T13:26:38.143Z,3.68
2019-02-06T13:29:10.292Z,4.23
2019-02-06T13:31:43.419Z,4.28
2019-02-06T13:34:15.779Z,4.39
2019-02-06T13:36:47.850Z,4.14
2019-02-06T13:39:20.044Z,3.63
2019-02-06T13:41:52.675Z,4.37
2019-02-06T13:44:25.355Z,4.67
2019-02-06T13:46:57.417Z,4.59
2019-02-06T13:49:29.594Z,3.66
2019-02-06T13:52:02.031Z,4.41
2019-02-06T13:54:34.673Z,4.47
2019-02-06T13:57:07.137Z,3.34
2019-02-06T13:59:39.506Z,2.62
2019-02-06T14:02:11.553Z,3.77
2019-02-06T14:04:43.719Z,4.14
2019-02-06T14:07:16.067Z,4.19
2019-02-06T14:09:48.512Z,4.85
2019-02-06T14:12:20.922Z,3.12
2019-02-06T14:14:53.293Z,3.28
2019-02-06T14:17:25.983Z,3.46
2019-02-06T14:20:01.040Z,4.04
2019-02-06T14:22:32.995Z,3.96
2019-02-06T14:25:22.618Z,4.03
2019-02-06T14:28:45.008Z,3.60
2019-02-06T14:31:50.493Z,3.63
2019-02-06T14:34:55.085Z,3.86
2019-02-06T14:37:49.176Z,4.20
2019-02-06T14:41:21.169Z,3.31
2019-02-06T14:44:32.825Z,2.99
2019-02-06T14:48:26.200Z,3.28
2019-02-06T14:52:03.485Z,2.66
2019-02-06T14:55:29.149Z,2.83
2019-02-06T14:59:32.081Z,2.63
2019-02-06T15:03:02.186Z,2.36
2019-02-06T15:06:46.572Z,2.31
2019-02-06T15:10:22.028Z,1.90
2019-02-06T15:14:03.986Z,2.09
2019-02-06T15:17:22.396Z,1.64
2019-02-06T15:20:52.559Z,1.69
2019-02-06T15:24:00.636Z,1.65
2019-02-06T15:27:14.518Z,1.81
2019-02-06T15:31:04.014Z,1.60
2019-02-06T15:34:15.514Z,1.27
2019-02-06T15:37:30.083Z,1.29
2019-02-06T15:41:11.241Z,0.85
2019-02-06T15:44:38.348Z,1.03
2019-02-06T15:47:55.214Z,0.63
2019-02-06T15:51:14.508Z,0.51
2019-02-06T15:54:14.409Z,0.36
2019-02-06T15:58:00.967Z,0.24
2019-02-06T16:02:03.421Z,0.00
2019-02-06T16:05:35.630Z,-0.01
2019-02-06T16:09:06.889Z,-0.35
2019-02-06T16:12:26.538Z,-0.22
2019-02-06T16:15:54.204Z,-0.48
2019-02-06T16:19:16.114Z,-0.51
2019-02-06T16:22:44.040Z,-0.63
2019-02-06T16:26:42.080Z,-0.71
2019-02-06T16:30:12.532Z,-0.59
2019-02-06T16:33:56.954Z,-0.76
2019-02-06T16:37:10.770Z,-0.84
2019-02-06T16:40:47.841Z,-1.05
2019-02-06T16:44:20.051Z,-1.05
2019-02-06T16:47:57.675Z,-1.16
2019-02-06T16:51:17.164Z,-1.23
2019-02-06T16:54:37.394Z,-1.28
2019-02-06T16:57:45.013Z,-1.39
2019-02-06T17:01:30.432Z,-1.41
2019-02-06T17:05:03.015Z,-1.31
2019-02-06T17:08:40.112Z,-1.48
2019-02-06T17:12:17.867Z,-1.52
2019-02-06T17:15:53.085Z,-1.64
2019-02-06T17:19:15.233Z,-1.64
2019-02-06T17:22:52.318Z,-1.76
2019-02-06T17:26:03.045Z,-1.84
2019-02-06T17:29:01.753Z,-1.91
2019-02-06T17:32:25.045Z,-1.95
2019-02-06T17:35:58.929Z,-2.00
2019-02-06T17:39:09.980Z,-2.07
2019-02-06T17:42:43.062Z,-2.11
2019-02-06T17:46:18.133Z,-2.19
2019-02-06T17:49:35.049Z,-2.26
2019-02-06T17:53:16.363Z,-2.30
2019-02-06T17:55:49.453Z,-2.37
2019-02-06T17:58:21.795Z,-2.38
2019-02-06T18:01:09.583Z,-2.42
2019-02-06T18:03:47.479Z,-2.48
2019-02-06T18:06:19.620Z,-2.49
2019-02-06T18:08:56.940Z,-2.54
2019-02-06T18:11:26.207Z,-2.57
2019-02-06T18:13:59.725Z,-2.60
2019-02-06T18:16:31.946Z,-2.62
2019-02-06T18:19:05.264Z,-2.65
2019-02-06T18:21:37.193Z,-2.68
2019-02-06T18:24:09.478Z,-2.72
2019-02-06T18:26:49.239Z,-2.72
2019-02-06T18:29:21.812Z,-2.77
2019-02-06T18:31:54.652Z,-2.81
2019-02-06T18:34:27.144Z,-2.80
2019-02-06T18:37:00.452Z,-2.81
2019-02-06T18:39:32.962Z,-2.87
2019-02-06T18:42:05.933Z,-2.93
2019-02-06T18:44:38.453Z,-2.93
2019-02-06T18:47:11.045Z,-3.00
2019-02-06T18:49:43.422Z,-3.02
2019-02-06T18:52:20.396Z,-3.04
2019-02-06T18:54:49.805Z,-3.08
2019-02-06T18:57:22.326Z,-3.10
2019-02-06T18:59:55.075Z,-3.14
2019-02-06T19:02:32.825Z,-3.15
2019-02-06T19:05:07.560Z,-3.13
2019-02-06T19:07:39.738Z,-3.15
2019-02-06T19:10:14.036Z,-3.15
2019-02-06T19:12:47.956Z,-3.21
2019-02-06T19:15:20.337Z,-3.21
2019-02-06T19:17:53.373Z,-3.25
2019-02-06T19:20:26.979Z,-3.29
2019-02-06T19:22:59.074Z,-3.31
2019-02-06T19:25:31.770Z,-3.28
2019-02-06T19:28:04.118Z,-3.30
2019-02-06T19:30:42.115Z,-3.30
2019-02-06T19:33:17.076Z,-3.28
2019-02-06T19:35:48.406Z,-3.28
2019-02-06T19:38:20.872Z,-3.27
2019-02-06T19:40:53.399Z,-3.30
2019-02-06T19:43:26.258Z,-3.28
2019-02-06T19:45:58.719Z,-3.29
2019-02-06T19:48:31.112Z,-3.28
2019-02-06T19:51:03.510Z,-3.27
2019-02-06T19:53:35.891Z,-3.28
2019-02-06T19:56:08.783Z,-3.29
2019-02-06T19:58:41.182Z,-3.25
2019-02-06T20:01:13.769Z,-3.27
2019-02-06T20:03:46.139Z,-3.27
2019-02-06T20:06:33.818Z,-3.29
2019-02-06T20:09:16.528Z,-3.31
2019-02-06T20:11:49.131Z,-3.31
2019-02-06T20:14:21.600Z,-3.34
2019-02-06T20:16:53.999Z,-3.33
2019-02-06T20:19:26.942Z,-3.32
2019-02-06T20:21:59.304Z,-3.30
2019-02-06T20:24:31.400Z,-3.30
2019-02-06T20:27:03.548Z,-3.36
2019-02-06T20:29:35.915Z,-3.37
2019-02-06T20:32:08.811Z,-3.38
2019-02-06T20:34:41.275Z,-3.40
2019-02-06T20:37:13.635Z,-3.41
2019-02-06T20:39:46.393Z,-3.44
2019-02-06T20:42:18.929Z,-3.39
2019-02-06T20:44:51.301Z,-3.44
2019-02-06T20:47:23.416Z,-3.51
2019-02-06T20:49:56.237Z,-3.53
2019-02-06T20:52:29.067Z,-3.56
2019-02-06T20:55:02.207Z,-3.62
2019-02-06T20:57:34.737Z,-3.68
2019-02-06T21:00:11.587Z,-3.70
2019-02-06T21:02:44.064Z,-3.75
2019-02-06T21:05:16.642Z,-3.76
2019-02-06T21:07:49.254Z,-3.74
2019-02-06T21:10:24.601Z,-3.75
2019-02-06T21:12:56.886Z,-3.74
2019-02-06T21:15:29.264Z,-3.75
2019-02-06T21:18:02.746Z,-3.82
2019-02-06T21:20:34.904Z,-3.86
2019-02-06T21:23:07.436Z,-3.90
2019-02-06T21:25:39.684Z,-3.88
2019-02-06T21:28:12.136Z,-3.90
2019-02-06T21:30:46.921Z,-3.95
2019-02-06T21:33:18.662Z,-3.96
2019-02-06T21:35:50.805Z,-3.95
2019-02-06T21:38:23.559Z,-3.94
2019-02-06T21:40:55.940Z,-3.97
2019-02-06T21:43:28.391Z,-3.93
2019-02-06T21:46:01.081Z,-3.95
2019-02-06T21:48:33.444Z,-3.98
2019-02-06T21:51:05.988Z,-4.00
2019-02-06T21:53:38.478Z,-4.02
2019-02-06T21:56:10.927Z,-3.98
2019-02-06T21:58:43.856Z,-3.97
2019-02-06T22:01:16.294Z,-3.93
2019-02-06T22:03:49.231Z,-3.95
2019-02-06T22:06:21.698Z,-3.94
2019-02-06T22:08:54.197Z,-3.94
2019-02-06T22:11:26.652Z,-3.92
2019-02-06T22:13:59.104Z,-3.89
2019-02-06T22:16:31.451Z,-3.93
2019-02-06T22:19:03.962Z,-3.94
2019-02-06T22:21:36.628Z,-3.99
2019-02-06T22:24:08.978Z,-4.03
2019-02-06T22:26:41.334Z,-4.04
2019-02-06T22:29:13.789Z,-4.04
2019-02-06T22:31:46.557Z,-4.02
2019-02-06T22:34:19.205Z,-4.05
2019-02-06T22:36:51.350Z,-4.13
2019-02-06T22:39:23.834Z,-4.17
2019-02-06T22:41:56.250Z,-4.22
2019-02-06T22:44:28.624Z,-4.27
2019-02-06T22:47:00.801Z,-4.29
2019-02-06T22:49:33.150Z,-4.33
2019-02-06T22:52:06.233Z,-4.40
2019-02-06T22:54:38.424Z,-4.44
2019-02-06T22:57:10.884Z,-4.44
2019-02-06T22:59:43.633Z,-4.53
2019-02-06T23:02:16.257Z,-4.59
2019-02-06T23:04:48.714Z,-4.65
2019-02-06T23:07:21.134Z,-4.67
2019-02-06T23:09:54.267Z,-4.69
2019-02-06T23:12:27.407Z,-4.69
2019-02-06T23:14:58.573Z,-4.73
2019-02-06T23:17:30.665Z,-4.73
2019-02-06T23:20:03.443Z,-4.82
2019-02-06T23:22:36.116Z,-4.82
2019-02-06T23:25:09.564Z,-4.83
2019-02-06T23:27:41.899Z,-4.90
2019-02-06T23:30:14.392Z,-4.93
2019-02-06T23:32:47.291Z,-4.88
2019-02-06T23:35:19.737Z,-4.88
2019-02-06T23:37:52.120Z,-4.90
2019-02-06T23:40:24.480Z,-4.90
2019-02-06T23:42:56.536Z,-4.91
2019-02-06T23:45:29.268Z,-4.91
2019-02-06T23:48:01.334Z,-4.95
2019-02-06T23:50:33.721Z,-4.97
2019-02-06T23:53:07.369Z,-4.97
2019-02-06T23:55:39.532Z,-4.98
2019-02-06T23:58:11.874Z,-5.01
